Time;durP1;ratioP1;P1;durP2;ratioP2;P2;SDS_P1;SDS_P2;PMS_P1;PMS_P2;Temp;Humidity;BMP_temperature;BMP_pressure;BME280_temperature;BME280_humidity;BME280_pressure;Samples;Min_cycle;Max_cycle;Signal;HPM_P1;HPM_P2
2022/10/19 00:01:50;;;;;;;17.27;10.37;;;16.10;99.90;;;;;;5006418;28;20217;-74
2022/10/19 00:04:15;;;;;;;19.20;9.50;;;16.10;99.90;;;;;;5019282;28;20223;-74
2022/10/19 00:06:41;;;;;;;18.47;8.80;;;16.10;99.90;;;;;;5034843;28;20227;-74
2022/10/19 00:09:10;;;;;;;16.67;10.37;;;16.00;99.90;;;;;;5022209;28;20294;-74
2022/10/19 00:11:39;;;;;;;15.80;10.43;;;16.00;99.90;;;;;;5001653;28;20217;-74
2022/10/19 00:14:06;;;;;;;19.30;10.17;;;16.00;99.90;;;;;;5012742;28;20508;-74
2022/10/19 00:16:35;;;;;;;12.83;8.27;;;16.00;99.90;;;;;;5014037;28;20596;-74
2022/10/19 00:19:04;;;;;;;16.70;9.33;;;15.90;99.90;;;;;;5017969;28;20487;-74
2022/10/19 00:21:30;;;;;;;14.07;9.50;;;15.80;99.90;;;;;;5002514;28;20531;-74
2022/10/19 00:23:55;;;;;;;15.27;9.47;;;15.90;99.90;;;;;;4997380;28;20523;-75
2022/10/19 00:26:21;;;;;;;15.77;8.93;;;15.90;99.90;;;;;;5013170;28;21041;-74
2022/10/19 00:28:48;;;;;;;15.60;10.90;;;15.90;99.90;;;;;;4994852;28;20263;-73
2022/10/19 00:31:17;;;;;;;13.63;8.60;;;15.90;99.90;;;;;;5016207;28;20483;-74
2022/10/19 00:33:45;;;;;;;17.40;9.03;;;15.90;99.90;;;;;;5003724;28;20995;-74
2022/10/19 00:36:32;;;;;;;16.27;10.37;;;15.90;99.90;;;;;;5007804;28;20513;-74
2022/10/19 00:38:59;;;;;;;17.10;9.03;;;15.80;99.90;;;;;;4997535;28;20443;-74
2022/10/19 00:41:28;;;;;;;15.77;9.80;;;15.80;99.90;;;;;;5030595;28;20439;-74
2022/10/19 00:44:02;;;;;;;13.10;8.93;;;15.80;99.90;;;;;;5006198;28;20461;-73
2022/10/19 00:46:31;;;;;;;16.50;10.27;;;15.80;99.90;;;;;;5013386;28;20467;-73
2022/10/19 00:49:06;;;;;;;17.83;10.10;;;15.80;99.90;;;;;;5024696;28;20512;-74
2022/10/19 00:51:34;;;;;;;15.37;10.07;;;15.80;99.90;;;;;;5003823;28;20458;-74
2022/10/19 00:54:03;;;;;;;19.60;10.43;;;15.80;99.90;;;;;;5007853;28;20958;-74
2022/10/19 00:56:28;;;;;;;15.37;8.87;;;15.80;99.90;;;;;;5007987;28;20469;-74
2022/10/19 00:58:55;;;;;;;15.43;9.57;;;15.80;99.90;;;;;;5000268;28;20453;-74
2022/10/19 01:01:22;;;;;;;15.47;8.77;;;15.80;99.90;;;;;;4997028;28;20542;-74
2022/10/19 01:03:48;;;;;;;16.00;9.40;;;15.80;99.90;;;;;;5013556;28;20455;-74
2022/10/19 01:06:16;;;;;;;17.83;9.93;;;15.80;99.90;;;;;;5020037;28;20480;-73
2022/10/19 01:08:42;;;;;;;16.90;10.57;;;15.80;99.90;;;;;;5008331;28;20470;-74
2022/10/19 01:11:26;;;;;;;18.10;10.83;;;15.80;99.90;;;;;;5008935;28;20480;-74
2022/10/19 01:14:15;;;;;;;15.47;8.83;;;15.80;99.90;;;;;;5016028;28;20216;-74
2022/10/19 01:16:56;;;;;;;14.83;9.30;;;15.80;99.90;;;;;;5021507;28;20535;-73
2022/10/19 01:20:06;;;;;;;21.43;11.40;;;15.80;99.90;;;;;;5030907;28;20451;-74
2022/10/19 01:22:53;;;;;;;15.87;8.47;;;15.80;99.90;;;;;;5029687;28;20829;-73
2022/10/19 01:25:56;;;;;;;14.17;8.03;;;15.70;99.90;;;;;;4997833;28;20460;-74
2022/10/19 01:28:28;;;;;;;14.43;8.17;;;15.70;99.90;;;;;;4967271;28;20464;-73
2022/10/19 01:31:15;;;;;;;17.93;9.97;;;15.70;99.90;;;;;;5020178;28;20471;-73
2022/10/19 01:34:15;;;;;;;14.50;9.17;;;15.70;99.90;;;;;;5024539;28;20451;-73
2022/10/19 01:36:43;;;;;;;17.67;10.47;;;15.70;99.90;;;;;;5023326;28;20470;-74
2022/10/19 01:39:28;;;;;;;13.30;9.37;;;15.70;99.90;;;;;;5009109;28;20479;-74
2022/10/19 01:42:08;;;;;;;14.20;9.40;;;15.70;99.90;;;;;;5006536;28;20456;-73
2022/10/19 01:44:36;;;;;;;15.97;9.17;;;15.70;99.90;;;;;;5035945;28;20454;-74
2022/10/19 01:47:10;;;;;;;13.30;8.47;;;15.70;99.90;;;;;;5014042;28;20979;-73
2022/10/19 01:49:48;;;;;;;17.10;10.30;;;15.70;99.90;;;;;;5013075;28;20478;-74
2022/10/19 01:52:17;;;;;;;18.03;9.47;;;15.70;99.90;;;;;;4994392;28;20491;-73
2022/10/19 01:54:48;;;;;;;14.13;8.57;;;15.70;99.90;;;;;;5015638;28;20448;-74
2022/10/19 01:57:19;;;;;;;14.30;8.30;;;15.70;99.90;;;;;;5014683;28;20474;-74
2022/10/19 01:59:47;;;;;;;12.53;8.40;;;15.70;99.90;;;;;;5014309;28;20483;-74
2022/10/19 02:02:15;;;;;;;12.07;8.30;;;15.70;99.90;;;;;;4991643;28;20462;-74
2022/10/19 02:04:41;;;;;;;17.30;8.80;;;15.60;99.90;;;;;;5031691;28;20997;-73
2022/10/19 02:07:09;;;;;;;14.43;8.90;;;15.60;99.90;;;;;;5018955;28;20476;-74
2022/10/19 02:09:35;;;;;;;16.07;9.30;;;15.60;99.90;;;;;;5006640;28;20450;-74
2022/10/19 02:12:04;;;;;;;19.60;9.47;;;15.60;99.90;;;;;;5000327;28;20455;-77
2022/10/19 02:14:36;;;;;;;15.27;10.20;;;15.60;99.90;;;;;;5013809;28;20224;-74
2022/10/19 02:17:06;;;;;;;13.00;9.80;;;15.60;99.90;;;;;;5012972;28;20477;-74
2022/10/19 02:19:32;;;;;;;18.33;9.23;;;15.60;99.90;;;;;;5025561;28;20518;-72
2022/10/19 02:21:58;;;;;;;13.33;9.00;;;15.60;99.90;;;;;;5015075;28;20447;-73
2022/10/19 02:24:24;;;;;;;14.30;9.67;;;15.50;99.90;;;;;;5011639;28;20216;-73
2022/10/19 02:26:51;;;;;;;16.90;9.37;;;15.50;99.90;;;;;;5011658;28;20228;-73
2022/10/19 02:29:17;;;;;;;15.73;8.73;;;15.50;99.90;;;;;;5014382;28;20222;-74
2022/10/19 02:31:44;;;;;;;14.23;8.30;;;15.50;99.90;;;;;;5028665;28;20459;-73
2022/10/19 02:34:11;;;;;;;12.17;8.10;;;15.50;99.90;;;;;;5019902;28;20867;-73
2022/10/19 02:36:36;;;;;;;12.03;7.57;;;15.50;99.90;;;;;;5011711;28;20463;-74
2022/10/19 02:39:03;;;;;;;15.93;9.27;;;15.50;99.90;;;;;;5011391;28;20447;-73
2022/10/19 02:41:37;;;;;;;11.13;8.13;;;15.50;99.90;;;;;;5011605;28;20744;-74
2022/10/19 02:44:08;;;;;;;19.53;8.67;;;15.50;99.90;;;;;;5005820;28;20883;-75
2022/10/19 02:46:41;;;;;;;13.60;8.57;;;15.50;99.90;;;;;;5012587;28;20873;-73
2022/10/19 02:49:09;;;;;;;14.83;8.47;;;15.50;99.90;;;;;;5047783;28;20462;-74
2022/10/19 02:51:53;;;;;;;14.90;8.67;;;15.50;99.90;;;;;;5011298;28;20517;-74
2022/10/19 02:54:18;;;;;;;11.87;8.07;;;15.40;99.90;;;;;;5015367;28;20489;-74
2022/10/19 02:56:44;;;;;;;11.53;8.07;;;15.30;99.90;;;;;;5042820;28;20487;-74
2022/10/19 02:59:10;;;;;;;12.60;7.60;;;15.40;99.90;;;;;;5025127;28;20286;-74
2022/10/19 03:01:35;;;;;;;13.70;7.03;;;15.40;99.90;;;;;;5040333;28;20266;-74
2022/10/19 03:04:01;;;;;;;12.73;9.30;;;15.40;99.90;;;;;;5014432;28;20221;-74
2022/10/19 03:06:27;;;;;;;14.13;8.10;;;15.40;99.90;;;;;;5030792;28;20227;-74
2022/10/19 03:08:52;;;;;;;17.77;9.73;;;15.40;99.90;;;;;;5006220;28;20306;-74
2022/10/19 03:11:18;;;;;;;17.20;8.90;;;15.30;99.90;;;;;;5020272;28;20749;-74
2022/10/19 03:13:44;;;;;;;11.00;7.67;;;15.30;99.90;;;;;;5050521;28;20227;-73
2022/10/19 03:16:11;;;;;;;13.50;8.10;;;15.30;99.90;;;;;;5012181;28;20228;-74
2022/10/19 03:18:37;;;;;;;11.60;7.80;;;15.30;99.90;;;;;;5018194;28;20216;-74
2022/10/19 03:21:05;;;;;;;13.93;8.67;;;15.30;99.90;;;;;;5012776;28;20458;-74
2022/10/19 03:23:31;;;;;;;18.10;8.77;;;15.30;99.90;;;;;;5014994;28;20708;-73
2022/10/19 03:25:57;;;;;;;12.63;8.10;;;15.30;99.90;;;;;;5027310;28;20466;-74
2022/10/19 03:28:23;;;;;;;13.00;8.27;;;15.30;99.90;;;;;;5028864;28;20223;-73
2022/10/19 03:30:48;;;;;;;14.87;6.87;;;15.30;99.90;;;;;;5016724;28;20217;-74
2022/10/19 03:33:14;;;;;;;13.03;7.97;;;15.30;99.90;;;;;;5017006;28;20562;-73
2022/10/19 03:35:39;;;;;;;17.23;8.17;;;15.30;99.90;;;;;;5034543;28;20559;-74
2022/10/19 03:38:05;;;;;;;11.17;7.73;;;15.30;99.90;;;;;;5003321;28;20267;-74
2022/10/19 03:40:31;;;;;;;12.97;8.87;;;15.20;99.90;;;;;;5012146;28;20231;-74
2022/10/19 03:42:57;;;;;;;13.00;7.40;;;15.30;99.90;;;;;;5022747;28;20217;-73
2022/10/19 03:45:22;;;;;;;11.20;8.27;;;15.20;99.90;;;;;;5002408;28;20281;-74
2022/10/19 03:47:49;;;;;;;11.77;7.77;;;15.20;99.90;;;;;;5003988;28;20220;-74
2022/10/19 03:50:15;;;;;;;14.70;9.00;;;15.20;99.90;;;;;;5005860;28;20592;-74
2022/10/19 03:52:42;;;;;;;13.57;8.20;;;15.20;99.90;;;;;;5000216;28;21043;-73
2022/10/19 03:55:09;;;;;;;14.07;9.13;;;15.20;99.90;;;;;;5016478;28;20462;-73
2022/10/19 03:57:36;;;;;;;9.90;6.93;;;15.20;99.90;;;;;;5007925;28;20523;-74
2022/10/19 04:00:03;;;;;;;12.77;8.17;;;15.20;99.90;;;;;;5028778;28;20840;-75
2022/10/19 04:02:37;;;;;;;10.27;7.07;;;15.20;99.90;;;;;;5025344;28;20537;-73
2022/10/19 04:05:03;;;;;;;11.70;7.73;;;15.20;99.90;;;;;;4997019;28;20558;-73
2022/10/19 04:07:29;;;;;;;12.80;8.57;;;15.20;99.90;;;;;;5019385;28;20527;-73
2022/10/19 04:09:55;;;;;;;16.33;9.17;;;15.20;99.90;;;;;;5010849;28;20456;-74
2022/10/19 04:12:21;;;;;;;11.87;8.77;;;15.20;99.90;;;;;;5015772;28;20238;-74
2022/10/19 04:14:47;;;;;;;15.43;8.83;;;15.20;99.90;;;;;;4995779;28;20440;-74
2022/10/19 04:17:13;;;;;;;13.30;8.00;;;15.20;99.90;;;;;;5024476;28;20274;-74
2022/10/19 04:19:39;;;;;;;12.03;8.00;;;15.20;99.90;;;;;;5013503;28;20216;-73
2022/10/19 04:22:05;;;;;;;14.10;9.00;;;15.20;99.90;;;;;;5022084;28;20453;-74
2022/10/19 04:24:30;;;;;;;13.97;8.60;;;15.20;99.90;;;;;;5025400;28;20441;-73
2022/10/19 04:26:56;;;;;;;15.07;9.00;;;15.20;99.90;;;;;;5014444;28;20311;-74
2022/10/19 04:29:24;;;;;;;10.80;7.27;;;15.10;99.90;;;;;;5047568;28;20235;-74
2022/10/19 04:31:51;;;;;;;12.33;8.47;;;15.10;99.90;;;;;;5022261;28;20224;-74
2022/10/19 04:34:18;;;;;;;12.40;8.60;;;15.10;99.90;;;;;;5003077;28;20443;-73
2022/10/19 04:36:44;;;;;;;12.57;7.70;;;15.10;99.90;;;;;;5003473;28;20456;-74
2022/10/19 04:39:10;;;;;;;13.77;8.43;;;15.10;99.90;;;;;;5017082;28;20999;-74
2022/10/19 04:41:37;;;;;;;11.70;7.17;;;15.10;99.90;;;;;;5022368;28;20511;-72
2022/10/19 04:44:07;;;;;;;15.10;8.40;;;15.10;99.90;;;;;;5016952;28;20463;-73
2022/10/19 04:46:33;;;;;;;14.67;8.00;;;15.10;99.90;;;;;;5014097;28;20471;-74
2022/10/19 04:48:59;;;;;;;12.67;7.40;;;15.10;99.90;;;;;;5013574;28;20580;-74
2022/10/19 04:51:25;;;;;;;9.73;7.03;;;15.10;99.90;;;;;;5029455;28;20862;-74
2022/10/19 04:53:52;;;;;;;12.77;8.43;;;15.00;99.90;;;;;;5032361;28;20219;-74
2022/10/19 04:56:22;;;;;;;11.17;6.80;;;15.00;99.90;;;;;;4999879;28;20451;-73
2022/10/19 04:58:48;;;;;;;11.10;7.20;;;15.00;99.90;;;;;;5021244;28;20452;-73
2022/10/19 05:01:19;;;;;;;11.90;7.40;;;15.00;99.90;;;;;;5011922;28;20985;-74
2022/10/19 05:03:46;;;;;;;11.33;6.23;;;15.00;99.90;;;;;;5014383;28;20708;-73
2022/10/19 05:06:13;;;;;;;11.10;7.20;;;15.00;99.90;;;;;;5013195;28;20498;-74
2022/10/19 05:08:39;;;;;;;12.57;8.60;;;15.00;99.90;;;;;;5012936;28;20444;-74
2022/10/19 05:11:13;;;;;;;13.07;7.47;;;15.00;99.90;;;;;;5002906;28;20439;-74
2022/10/19 05:13:39;;;;;;;10.90;6.90;;;15.00;99.90;;;;;;5005509;28;20506;-72
2022/10/19 05:16:07;;;;;;;9.73;7.00;;;14.90;99.90;;;;;;5019322;28;20454;-74
2022/10/19 05:18:34;;;;;;;9.50;6.63;;;14.90;99.90;;;;;;5013833;28;20525;-73
2022/10/19 05:21:05;;;;;;;8.40;6.97;;;14.90;99.90;;;;;;5018592;28;20534;-73
2022/10/19 05:23:32;;;;;;;6.90;6.20;;;14.90;99.90;;;;;;5014978;28;20439;-73
2022/10/19 05:26:12;;;;;;;10.40;6.20;;;14.90;99.90;;;;;;5012009;28;20497;-73
2022/10/19 05:28:38;;;;;;;13.00;7.10;;;14.80;99.90;;;;;;5025364;28;20489;-74
2022/10/19 05:31:19;;;;;;;9.53;6.53;;;14.80;99.90;;;;;;4989190;28;20454;-73
2022/10/19 05:33:45;;;;;;;9.70;6.43;;;14.80;99.90;;;;;;5013943;28;20220;-74
2022/10/19 05:36:16;;;;;;;9.73;6.80;;;14.70;99.90;;;;;;5003584;28;20458;-73
2022/10/19 05:38:43;;;;;;;9.43;7.30;;;14.70;99.90;;;;;;5013856;28;20504;-75
2022/10/19 05:41:09;;;;;;;18.10;6.87;;;14.70;99.90;;;;;;5019497;28;20512;-74
2022/10/19 05:43:35;;;;;;;12.70;5.77;;;14.70;99.90;;;;;;5000356;28;20459;-74
2022/10/19 05:46:09;;;;;;;13.00;6.80;;;14.70;99.90;;;;;;4993644;28;20311;-74
2022/10/19 05:48:36;;;;;;;12.03;6.27;;;14.70;99.90;;;;;;5020341;28;20214;-74
2022/10/19 05:51:04;;;;;;;9.90;5.93;;;14.70;99.90;;;;;;5012277;28;20531;-75
2022/10/19 05:53:30;;;;;;;16.87;7.00;;;14.70;99.90;;;;;;5022130;28;20477;-74
2022/10/19 05:55:56;;;;;;;9.50;6.00;;;14.70;99.90;;;;;;4985527;28;20472;-75
2022/10/19 05:58:22;;;;;;;9.93;6.13;;;14.70;99.90;;;;;;5010529;28;20451;-74
2022/10/19 06:00:56;;;;;;;10.23;6.13;;;14.70;99.90;;;;;;5002346;28;20455;-74
2022/10/19 06:03:23;;;;;;;10.50;5.10;;;14.70;99.90;;;;;;5012712;28;20244;-74
2022/10/19 06:05:48;;;;;;;10.33;5.60;;;14.70;99.90;;;;;;5022491;28;20549;-74
2022/10/19 06:08:18;;;;;;;11.97;6.50;;;14.70;99.90;;;;;;5016211;28;20544;-74
2022/10/19 06:10:44;;;;;;;11.97;6.50;;;14.60;99.90;;;;;;5012708;28;20225;-75
2022/10/19 06:13:10;;;;;;;11.50;6.80;;;14.60;99.90;;;;;;5015535;28;20459;-74
2022/10/19 06:15:38;;;;;;;10.27;6.80;;;14.60;99.90;;;;;;5015255;28;20455;-74
2022/10/19 06:18:08;;;;;;;12.57;7.73;;;14.60;99.90;;;;;;5020624;28;20887;-75
2022/10/19 06:20:36;;;;;;;19.13;8.00;;;14.60;99.90;;;;;;5024792;28;20455;-74
2022/10/19 06:23:02;;;;;;;8.80;5.97;;;14.60;99.90;;;;;;5034648;28;20461;-74
2022/10/19 06:25:29;;;;;;;8.90;6.20;;;14.60;99.90;;;;;;5036383;28;20458;-73
2022/10/19 06:27:55;;;;;;;9.63;5.87;;;14.60;99.90;;;;;;5020066;28;20478;-73
2022/10/19 06:30:20;;;;;;;9.10;6.37;;;14.60;99.90;;;;;;5001394;28;20816;-74
2022/10/19 06:32:46;;;;;;;10.10;7.40;;;14.60;99.90;;;;;;5021491;28;20339;-74
2022/10/19 06:35:12;;;;;;;9.37;6.57;;;14.60;99.90;;;;;;4996288;28;20247;-74
2022/10/19 06:37:37;;;;;;;8.87;6.30;;;14.60;99.90;;;;;;5006090;28;20220;-73
2022/10/19 06:40:03;;;;;;;12.10;6.60;;;14.50;99.90;;;;;;5012219;28;20227;-73
2022/10/19 06:42:29;;;;;;;8.97;5.60;;;14.50;99.90;;;;;;5019283;28;20216;-74
2022/10/19 06:44:55;;;;;;;8.90;5.60;;;14.50;99.90;;;;;;5004090;28;20227;-72
2022/10/19 06:47:20;;;;;;;10.40;6.33;;;14.50;99.90;;;;;;5021821;28;20228;-73
2022/10/19 06:49:46;;;;;;;6.33;4.93;;;14.50;99.90;;;;;;5017491;28;20216;-74
2022/10/19 06:52:12;;;;;;;11.17;6.20;;;14.50;99.90;;;;;;5015459;28;20224;-73
2022/10/19 06:54:37;;;;;;;11.43;6.07;;;14.50;99.90;;;;;;5018109;28;20259;-74
2022/10/19 06:57:03;;;;;;;9.67;6.47;;;14.50;99.90;;;;;;4999653;28;20224;-73
2022/10/19 06:59:29;;;;;;;12.17;6.57;;;14.50;99.90;;;;;;4993129;28;20242;-73
2022/10/19 07:01:54;;;;;;;11.07;7.27;;;14.50;99.90;;;;;;5003555;28;20706;-73
2022/10/19 07:04:20;;;;;;;9.37;6.90;;;14.50;99.90;;;;;;5008295;28;20318;-74
2022/10/19 07:06:46;;;;;;;8.60;6.83;;;14.50;99.90;;;;;;5015573;28;20224;-73
2022/10/19 07:09:11;;;;;;;13.13;7.30;;;14.40;99.90;;;;;;5028409;28;20215;-74
2022/10/19 07:11:37;;;;;;;9.10;6.73;;;14.40;99.90;;;;;;4997727;28;20673;-74
2022/10/19 07:14:03;;;;;;;14.87;6.53;;;14.40;99.90;;;;;;5000766;28;20216;-74
2022/10/19 07:16:28;;;;;;;14.93;7.57;;;14.40;99.90;;;;;;5022553;28;20298;-74
2022/10/19 07:18:54;;;;;;;13.73;7.10;;;14.30;99.90;;;;;;5005938;28;20228;-74
2022/10/19 07:21:21;;;;;;;12.03;7.20;;;14.30;99.90;;;;;;4999532;28;20252;-74
2022/10/19 07:23:47;;;;;;;10.57;6.90;;;14.30;99.90;;;;;;4997814;28;20216;-74
2022/10/19 07:26:19;;;;;;;11.73;6.97;;;14.30;99.90;;;;;;5017073;28;20468;-75
2022/10/19 07:28:46;;;;;;;11.57;7.10;;;14.30;99.90;;;;;;5014622;28;20220;-74
2022/10/19 07:31:19;;;;;;;10.37;6.50;;;14.30;99.90;;;;;;5012646;28;20545;-73
2022/10/19 07:33:45;;;;;;;12.47;6.67;;;14.30;99.90;;;;;;5032363;28;20446;-73
2022/10/19 07:36:12;;;;;;;18.80;7.10;;;14.30;99.90;;;;;;4992868;28;20470;-74
2022/10/19 07:38:39;;;;;;;9.83;7.50;;;14.30;99.90;;;;;;4998970;28;20443;-74
2022/10/19 07:41:13;;;;;;;15.63;7.03;;;14.30;99.90;;;;;;5020564;28;20473;-73
2022/10/19 07:43:40;;;;;;;11.77;6.20;;;14.30;99.90;;;;;;5016411;28;20461;-73
2022/10/19 07:46:09;;;;;;;11.57;7.20;;;14.30;99.90;;;;;;5019714;28;20459;-73
2022/10/19 07:48:35;;;;;;;8.13;6.30;;;14.30;99.90;;;;;;5019705;28;20971;-75
2022/10/19 07:51:03;;;;;;;11.30;6.97;;;14.30;99.90;;;;;;5007439;28;20443;-74
2022/10/19 07:53:29;;;;;;;10.43;6.43;;;14.30;99.90;;;;;;5016855;28;20221;-73
2022/10/19 07:56:01;;;;;;;10.60;6.27;;;14.40;99.90;;;;;;5019837;28;20466;-72
2022/10/19 07:58:26;;;;;;;11.30;6.60;;;14.40;99.90;;;;;;5023255;28;20224;-74
2022/10/19 08:00:59;;;;;;;16.20;6.23;;;14.40;99.90;;;;;;5016930;28;20523;-72
2022/10/19 08:03:25;;;;;;;21.17;7.83;;;14.40;99.90;;;;;;5020550;28;20224;-74
2022/10/19 08:05:50;;;;;;;10.33;6.27;;;14.40;99.90;;;;;;4999131;28;21011;-72
2022/10/19 08:08:16;;;;;;;12.40;6.20;;;14.50;99.90;;;;;;5003569;28;20232;-73
2022/10/19 08:10:41;;;;;;;11.30;6.70;;;14.50;99.90;;;;;;5018448;28;20596;-74
2022/10/19 08:13:07;;;;;;;12.70;6.80;;;14.50;99.90;;;;;;5012675;28;20636;-73
2022/10/19 08:15:33;;;;;;;9.93;6.37;;;14.50;99.90;;;;;;5017964;28;20298;-73
2022/10/19 08:17:59;;;;;;;10.80;6.13;;;14.60;99.90;;;;;;5019184;28;20231;-73
2022/10/19 08:20:25;;;;;;;11.10;6.50;;;14.60;99.90;;;;;;5011551;28;20212;-74
2022/10/19 08:22:51;;;;;;;15.40;7.03;;;14.60;99.90;;;;;;5008685;28;20728;-72
2022/10/19 08:25:17;;;;;;;13.80;7.30;;;14.70;99.90;;;;;;5001112;28;20268;-73
2022/10/19 08:27:42;;;;;;;14.67;6.30;;;14.70;99.90;;;;;;5005145;28;21032;-74
2022/10/19 08:30:09;;;;;;;9.97;6.37;;;14.70;99.90;;;;;;5004721;28;20224;-74
2022/10/19 08:32:34;;;;;;;9.10;6.00;;;14.70;99.90;;;;;;5019370;28;20259;-73
2022/10/19 08:35:00;;;;;;;12.43;6.67;;;14.80;99.90;;;;;;5004021;28;20485;-74
2022/10/19 08:37:25;;;;;;;10.60;5.43;;;14.80;99.90;;;;;;5022243;28;20220;-74
2022/10/19 08:39:51;;;;;;;9.87;6.27;;;14.80;99.90;;;;;;5039705;28;20231;-72
2022/10/19 08:42:21;;;;;;;10.70;6.50;;;14.90;99.90;;;;;;5022652;28;20217;-74
2022/10/19 08:45:09;;;;;;;7.87;5.10;;;14.90;99.90;;;;;;4997332;28;20216;-72
2022/10/19 08:48:06;;;;;;;11.73;5.53;;;14.90;99.90;;;;;;5017623;28;20471;-74
2022/10/19 08:50:42;;;;;;;9.43;4.90;;;14.90;99.90;;;;;;5019486;28;20447;-73
2022/10/19 08:53:21;;;;;;;7.60;4.97;;;14.90;99.90;;;;;;5039465;28;20512;-74
2022/10/19 08:55:49;;;;;;;10.90;6.13;;;14.90;99.90;;;;;;5009414;28;20460;-74
2022/10/19 08:58:44;;;;;;;14.43;6.23;;;14.90;99.90;;;;;;5024516;28;20547;-74
2022/10/19 09:01:13;;;;;;;6.57;4.63;;;15.00;99.90;;;;;;5027721;28;20452;-73
2022/10/19 09:03:57;;;;;;;6.03;4.37;;;15.00;99.90;;;;;;5004647;28;20459;-74
2022/10/19 09:06:40;;;;;;;7.30;4.70;;;15.00;99.90;;;;;;5005686;28;20459;-74
2022/10/19 09:09:11;;;;;;;16.43;6.63;;;15.00;99.90;;;;;;5005827;28;20990;-74
2022/10/19 09:11:40;;;;;;;11.47;5.10;;;15.10;99.90;;;;;;5022502;28;20447;-72
2022/10/19 09:14:29;;;;;;;12.70;5.43;;;15.10;99.90;;;;;;5013851;28;20463;-75
2022/10/19 09:17:05;;;;;;;9.23;5.57;;;15.20;99.90;;;;;;5023132;28;20475;-74
2022/10/19 09:19:31;;;;;;;6.97;4.90;;;15.20;99.90;;;;;;5022467;28;20449;-74
2022/10/19 09:22:04;;;;;;;7.77;5.40;;;15.20;99.90;;;;;;5005479;28;20466;-74
2022/10/19 09:24:42;;;;;;;8.40;4.73;;;15.10;99.90;;;;;;5019269;28;20455;-74
2022/10/19 09:27:22;;;;;;;12.90;5.47;;;15.20;99.90;;;;;;4999365;28;20479;-74
2022/10/19 09:29:57;;;;;;;8.57;5.13;;;15.20;99.90;;;;;;5017596;28;20459;-74
2022/10/19 09:32:32;;;;;;;10.60;5.57;;;15.20;99.90;;;;;;5021205;28;20528;-74
2022/10/19 09:35:16;;;;;;;5.80;4.77;;;15.30;99.90;;;;;;5003025;28;20829;-74
2022/10/19 09:37:47;;;;;;;8.57;5.70;;;15.30;99.90;;;;;;5019422;28;20453;-73
2022/10/19 09:40:30;;;;;;;8.80;4.57;;;15.30;99.90;;;;;;5020620;28;20872;-74
2022/10/19 09:42:57;;;;;;;7.30;5.10;;;15.30;99.90;;;;;;5017199;28;20476;-74
2022/10/19 09:45:31;;;;;;;8.10;5.27;;;15.40;99.90;;;;;;5014390;28;20447;-74
2022/10/19 09:47:58;;;;;;;6.07;4.30;;;15.40;99.90;;;;;;5004542;28;20477;-74
2022/10/19 09:50:27;;;;;;;10.40;4.93;;;15.40;99.90;;;;;;5006561;28;20466;-73
2022/10/19 09:52:57;;;;;;;10.50;6.00;;;15.40;99.90;;;;;;5018815;28;20459;-74
2022/10/19 09:55:36;;;;;;;9.60;6.03;;;15.40;99.90;;;;;;5013486;28;20467;-73
2022/10/19 09:58:14;;;;;;;8.50;5.33;;;15.40;99.90;;;;;;5012327;28;20541;-75
2022/10/19 10:00:41;;;;;;;9.40;4.80;;;15.50;99.90;;;;;;5033275;28;20458;-73
2022/10/19 10:03:20;;;;;;;5.83;4.37;;;15.50;99.90;;;;;;5025148;28;20455;-74
2022/10/19 10:05:47;;;;;;;6.27;4.00;;;15.50;99.90;;;;;;5013525;28;20455;-73
2022/10/19 10:08:24;;;;;;;7.00;3.77;;;15.60;99.90;;;;;;5016984;28;20549;-73
2022/10/19 10:11:13;;;;;;;9.73;4.83;;;15.60;99.90;;;;;;5033246;28;20548;-72
2022/10/19 10:13:41;;;;;;;5.10;4.13;;;15.60;99.90;;;;;;5016066;28;20462;-74
2022/10/19 10:16:13;;;;;;;9.30;5.40;;;15.60;99.90;;;;;;5013905;28;20541;-74
2022/10/19 10:18:58;;;;;;;7.27;4.70;;;15.60;99.90;;;;;;5012790;28;20459;-74
2022/10/19 10:21:34;;;;;;;7.13;5.70;;;15.50;99.90;;;;;;5012684;28;20460;-73
2022/10/19 10:24:17;;;;;;;7.10;4.80;;;15.60;99.90;;;;;;5024993;28;20503;-73
2022/10/19 10:26:45;;;;;;;7.90;5.27;;;15.70;99.90;;;;;;5015082;28;20488;-73
2022/10/19 10:29:26;;;;;;;8.40;5.40;;;15.70;99.90;;;;;;4997599;28;20990;-74
2022/10/19 10:31:57;;;;;;;6.57;4.97;;;15.70;99.90;;;;;;5035079;28;20866;-72
2022/10/19 10:34:34;;;;;;;8.97;5.90;;;15.80;99.90;;;;;;4996113;28;20940;-74
2022/10/19 10:37:03;;;;;;;9.40;5.73;;;15.80;99.90;;;;;;5021955;28;20554;-74
2022/10/19 10:39:29;;;;;;;7.03;5.17;;;15.80;99.90;;;;;;5007527;28;20452;-74
2022/10/19 10:42:00;;;;;;;6.23;5.47;;;15.80;99.90;;;;;;5019822;28;20467;-73
2022/10/19 10:44:29;;;;;;;7.70;5.70;;;15.80;99.90;;;;;;5013862;28;20445;-74
2022/10/19 10:46:57;;;;;;;8.50;5.53;;;15.90;99.90;;;;;;4996792;28;20475;-72
2022/10/19 10:49:35;;;;;;;7.13;4.93;;;15.90;99.90;;;;;;5017120;28;20446;-73
2022/10/19 10:52:09;;;;;;;8.90;6.33;;;15.80;99.90;;;;;;5002690;28;20994;-74
2022/10/19 10:54:36;;;;;;;6.93;4.87;;;15.80;99.90;;;;;;5012695;28;20462;-74
2022/10/19 10:57:02;;;;;;;17.40;6.20;;;15.80;99.90;;;;;;5003137;28;20547;-74
2022/10/19 10:59:59;;;;;;;6.70;4.50;;;15.90;99.90;;;;;;5018492;28;20475;-74
2022/10/19 11:02:40;;;;;;;9.77;5.80;;;15.90;99.90;;;;;;5016961;28;20443;-73
2022/10/19 11:05:16;;;;;;;7.40;5.03;;;15.90;99.90;;;;;;5012257;28;20543;-74
2022/10/19 11:07:45;;;;;;;11.70;5.53;;;16.00;99.90;;;;;;5035608;28;20469;-72
2022/10/19 11:10:36;;;;;;;8.90;5.70;;;15.90;99.90;;;;;;5014758;28;20521;-73
2022/10/19 11:13:41;;;;;;;7.27;6.10;;;15.90;99.90;;;;;;4999434;28;20455;-75
2022/10/19 11:16:18;;;;;;;6.03;5.30;;;15.90;99.90;;;;;;5012526;28;20468;-74
2022/10/19 11:19:15;;;;;;;7.10;5.70;;;16.00;99.90;;;;;;4995941;28;20450;-74
2022/10/19 11:22:06;;;;;;;10.47;7.17;;;16.00;99.90;;;;;;5020245;28;20478;-74
2022/10/19 11:24:57;;;;;;;9.93;6.80;;;16.10;99.90;;;;;;5020295;28;20455;-74
2022/10/19 11:27:41;;;;;;;7.60;5.30;;;16.10;99.90;;;;;;5037160;28;20554;-72
2022/10/19 11:30:19;;;;;;;8.60;5.37;;;16.10;99.90;;;;;;5018836;28;20464;-74
2022/10/19 11:33:00;;;;;;;11.30;5.47;;;16.00;99.90;;;;;;5037212;28;20454;-72
2022/10/19 11:35:29;;;;;;;8.60;5.73;;;16.00;99.90;;;;;;5019402;28;20455;-74
2022/10/19 11:38:13;;;;;;;6.20;5.30;;;15.90;99.90;;;;;;5019116;28;20465;-73
2022/10/19 11:40:51;;;;;;;8.27;6.00;;;16.00;99.90;;;;;;5040009;28;20534;-73
2022/10/19 11:43:47;;;;;;;11.47;6.77;;;16.00;99.90;;;;;;5002954;28;20541;-73
2022/10/19 11:46:15;;;;;;;8.70;6.53;;;15.90;99.90;;;;;;5033582;28;20451;-74
2022/10/19 11:49:04;;;;;;;8.10;5.70;;;15.90;99.90;;;;;;5022967;28;20844;-74
2022/10/19 11:51:39;;;;;;;10.50;5.87;;;15.80;99.90;;;;;;4991308;28;20973;-74
2022/10/19 11:54:24;;;;;;;6.90;5.40;;;15.70;99.90;;;;;;5022898;28;20439;-72
2022/10/19 11:56:56;;;;;;;8.77;5.63;;;15.70;99.90;;;;;;5018212;28;20533;-74
2022/10/19 11:59:47;;;;;;;7.47;5.40;;;15.70;99.90;;;;;;5002732;28;20457;-72
2022/10/19 12:02:41;;;;;;;7.73;6.17;;;15.70;99.90;;;;;;5019020;28;20446;-73
2022/10/19 12:05:26;;;;;;;11.73;5.80;;;15.70;99.90;;;;;;5035393;28;20521;-72
2022/10/19 12:07:52;;;;;;;8.43;5.27;;;15.70;99.90;;;;;;5020996;28;20476;-73
2022/10/19 12:10:26;;;;;;;12.23;6.70;;;15.70;99.90;;;;;;5041205;28;20459;-74
2022/10/19 12:12:59;;;;;;;9.00;6.53;;;15.60;99.90;;;;;;5019356;28;20220;-72
2022/10/19 12:15:28;;;;;;;7.83;5.63;;;15.60;99.90;;;;;;5020018;28;20466;-74
2022/10/19 12:17:58;;;;;;;8.80;6.37;;;15.60;99.90;;;;;;5022486;28;20550;-74
2022/10/19 12:20:52;;;;;;;8.10;5.60;;;15.60;99.90;;;;;;5019165;28;20447;-73
2022/10/19 12:23:24;;;;;;;9.40;6.73;;;15.60;99.90;;;;;;5025544;28;20515;-73
2022/10/19 12:25:51;;;;;;;10.90;6.97;;;15.60;99.90;;;;;;5015917;28;21060;-74
2022/10/19 12:28:23;;;;;;;9.90;5.10;;;15.60;99.90;;;;;;5022724;28;20585;-74
2022/10/19 12:30:51;;;;;;;11.20;5.33;;;15.60;99.90;;;;;;5011945;28;20544;-73
2022/10/19 12:33:41;;;;;;;8.70;5.97;;;15.60;99.90;;;;;;5001154;28;20466;-73
2022/10/19 12:36:31;;;;;;;7.07;5.73;;;15.60;99.90;;;;;;5017539;28;20460;-74
2022/10/19 12:39:09;;;;;;;10.67;6.87;;;15.60;99.90;;;;;;5019384;28;20450;-72
2022/10/19 12:41:56;;;;;;;13.17;7.13;;;15.60;99.90;;;;;;5022087;28;20459;-73
2022/10/19 12:45:03;;;;;;;11.30;6.20;;;15.50;99.90;;;;;;5016950;28;20474;-72
2022/10/19 12:47:29;;;;;;;12.73;6.43;;;15.50;99.90;;;;;;5033482;28;20475;-74
2022/10/19 12:49:55;;;;;;;10.87;5.83;;;15.60;99.90;;;;;;5015682;28;20465;-73
2022/10/19 12:52:44;;;;;;;9.50;5.73;;;15.60;99.90;;;;;;5000324;28;20220;-72
2022/10/19 12:55:33;;;;;;;6.97;5.80;;;15.60;99.90;;;;;;5024911;28;20476;-74
2022/10/19 12:58:12;;;;;;;7.63;5.30;;;15.60;99.90;;;;;;5014160;28;20456;-73
2022/10/19 13:00:37;;;;;;;7.97;5.77;;;15.60;99.90;;;;;;5033966;28;20751;-73
2022/10/19 13:03:14;;;;;;;13.00;7.30;;;15.70;99.90;;;;;;5009890;28;20535;-71